Time;durP1;ratioP1;P1;durP2;ratioP2;P2;SDS_P1;SDS_P2;PMS_P1;PMS_P2;Temp;Humidity;BMP_temperature;BMP_pressure;BME280_temperature;BME280_humidity;BME280_pressure;Samples;Min_cycle;Max_cycle;Signal;HPM_P1;HPM_P2
2021/12/07 00:01:06;;;;;;;;;;;;;;;9.03;89.24;93865.22;5051288;28;1105;-51
2021/12/07 00:03:32;;;;;;;;;;;;;;;9.01;89.04;93877.91;5051857;28;1988;-51
2021/12/07 00:05:58;;;;;;;;;;;;;;;8.88;89.56;93875.88;5051642;28;1053;-51
2021/12/07 00:08:25;;;;;;;;;;;;;;;8.72;90.42;93866.16;5053015;28;1040;-51
2021/12/07 00:10:51;;;;;;;;;;;;;;;8.63;90.98;93866.44;5055305;28;1073;-51
2021/12/07 00:13:18;;;;;;;;;;;;;;;8.65;90.73;93873.25;5055221;28;1065;-51
2021/12/07 00:15:44;;;;;;;;;;;;;;;8.67;89.82;93876.56;5055173;28;989;-50
2021/12/07 00:18:10;;;;;;;;;;;;;;;8.70;89.35;93878.84;5055277;28;1182;-51
2021/12/07 00:20:36;;;;;;;;;;;;;;;8.68;89.31;93864.06;5054877;28;1333;-51
2021/12/07 00:23:07;;;;;;;;;;;;;;;8.61;90.05;93869.28;5055379;28;1918;-50
2021/12/07 00:25:34;;;;;;;;;;;;;;;8.62;89.82;93865.63;5055085;28;974;-50
2021/12/07 00:28:00;;;;;;;;;;;;;;;8.58;89.88;93873.13;5055081;28;985;-50
2021/12/07 00:30:30;;;;;;;;;;;;;;;8.49;89.95;93881.38;5054631;28;1100;-50
2021/12/07 00:35:42;;;;;;;;;;;;;;;8.44;89.97;93865.09;5054625;28;1351;-51
2021/12/07 00:38:13;;;;;;;;;;;;;;;8.39;90.31;93866.44;5054758;28;1065;-51
2021/12/07 00:40:40;;;;;;;;;;;;;;;8.37;90.08;93844.50;5054525;28;1060;-51
2021/12/07 00:43:07;;;;;;;;;;;;;;;8.39;90.01;93852.31;5054859;28;1918;-51
2021/12/07 00:45:34;;;;;;;;;;;;;;;8.36;89.53;93850.00;5053383;28;1069;-51
2021/12/07 00:48:01;;;;;;;;;;;;;;;8.33;90.02;93848.53;5054772;28;1056;-51
2021/12/07 00:50:28;;;;;;;;;;;;;;;8.37;90.15;93854.31;5054616;28;1041;-51
2021/12/07 00:52:54;;;;;;;;;;;;;;;8.44;89.95;93846.47;5054466;28;1005;-51
2021/12/07 00:55:23;;;;;;;;;;;;;;;8.46;90.02;93847.94;5054697;28;1068;-51
2021/12/07 00:57:52;;;;;;;;;;;;;;;8.37;90.46;93849.00;5054068;28;1263;-51
2021/12/07 01:00:19;;;;;;;;;;;;;;;8.41;90.40;93847.63;5054410;28;1028;-51
2021/12/07 01:02:45;;;;;;;;;;;;;;;8.42;90.65;93848.47;5054071;28;1996;-51
2021/12/07 01:05:21;;;;;;;;;;;;;;;8.46;90.68;93847.09;5054420;28;985;-51
2021/12/07 01:26:42;;;;;;;;;;;;;;;8.28;90.12;93837.56;5053776;28;1037;-51
2021/12/07 01:29:08;;;;;;;;;;;;;;;8.35;90.19;93829.69;5052794;28;1013;-51
2021/12/07 01:43:26;;;;;;;;;;;;;;;8.42;89.93;93824.50;5053428;28;1972;-51
2021/12/07 02:01:05;;;;;;;;;;;;;;;8.36;89.02;93796.72;5053268;28;973;-51
2021/12/07 02:03:31;;;;;;;;;;;;;;;8.33;89.12;93805.09;5052689;28;1984;-51
2021/12/07 02:05:57;;;;;;;;;;;;;;;8.39;89.03;93796.38;5053458;28;973;-51
2021/12/07 02:08:24;;;;;;;;;;;;;;;8.45;88.67;93798.34;5052856;28;1273;-51
2021/12/07 02:10:53;;;;;;;;;;;;;;;8.51;88.60;93791.47;5052681;28;1100;-51
2021/12/07 02:14:15;;;;;;;;;;;;;;;8.43;88.42;93791.53;5052593;28;1097;-51
2021/12/07 02:16:12;;;;;;;;;;;;;;;8.44;88.68;93782.53;5047356;28;1501;-51
2021/12/07 02:18:38;;;;;;;;;;;;;;;8.47;88.46;93776.84;5052724;28;1182;-51
2021/12/07 02:21:20;;;;;;;;;;;;;;;8.52;88.33;93779.81;5053076;28;966;-51
2021/12/07 02:23:47;;;;;;;;;;;;;;;8.47;88.61;93782.19;5052845;28;1989;-51
2021/12/07 02:26:13;;;;;;;;;;;;;;;8.50;89.04;93773.81;5052858;28;1065;-51
2021/12/07 02:28:40;;;;;;;;;;;;;;;8.60;88.28;93782.38;5052454;28;962;-51
2021/12/07 02:31:07;;;;;;;;;;;;;;;8.51;88.03;93775.47;5052464;28;1044;-51
2021/12/07 02:33:33;;;;;;;;;;;;;;;8.34;89.10;93778.25;5052713;28;1085;-51
2021/12/07 02:36:00;;;;;;;;;;;;;;;8.28;89.37;93773.66;5052720;28;1305;-51
2021/12/07 02:38:26;;;;;;;;;;;;;;;8.16;89.32;93785.78;5052401;28;958;-51
2021/12/07 02:40:52;;;;;;;;;;;;;;;8.10;89.34;93778.47;5052237;28;1144;-51
2021/12/07 02:43:18;;;;;;;;;;;;;;;8.15;89.63;93781.44;5052090;28;1906;-51
2021/12/07 02:45:44;;;;;;;;;;;;;;;8.24;89.38;93772.38;5052859;28;1026;-51
2021/12/07 02:48:10;;;;;;;;;;;;;;;8.28;89.39;93764.84;5052265;28;985;-51
2021/12/07 02:50:36;;;;;;;;;;;;;;;8.23;88.79;93762.72;5051491;28;1300;-50
2021/12/07 02:53:02;;;;;;;;;;;;;;;8.18;88.98;93754.47;5052098;28;1066;-51
2021/12/07 02:55:31;;;;;;;;;;;;;;;8.17;89.34;93758.13;5052565;28;994;-51
2021/12/07 02:57:57;;;;;;;;;;;;;;;8.20;88.88;93760.44;5052461;28;1039;-51
2021/12/07 03:00:29;;;;;;;;;;;;;;;8.25;88.17;93768.69;5052304;28;1033;-51
2021/12/07 03:03:04;;;;;;;;;;;;;;;8.22;88.57;93766.41;5052449;28;1906;-51
2021/12/07 03:27:32;;;;;;;;;;;;;;;8.16;89.11;93743.16;5052320;28;1040;-51
2021/12/07 03:29:58;;;;;;;;;;;;;;;8.13;90.00;93746.19;5052225;28;990;-51
2021/12/07 03:32:24;;;;;;;;;;;;;;;8.26;89.37;93741.06;5051952;28;941;-51
2021/12/07 03:34:50;;;;;;;;;;;;;;;8.28;88.84;93741.72;5051679;28;1128;-52
2021/12/07 03:37:16;;;;;;;;;;;;;;;8.22;88.96;93739.78;5051818;28;1046;-51
2021/12/07 03:39:42;;;;;;;;;;;;;;;8.16;89.60;93744.00;5051560;28;977;-51
2021/12/07 03:42:08;;;;;;;;;;;;;;;8.15;90.06;93750.31;5052814;28;2001;-51
2021/12/07 03:44:34;;;;;;;;;;;;;;;8.19;90.13;93746.31;5055744;28;969;-51
2021/12/07 03:47:00;;;;;;;;;;;;;;;8.21;90.16;93740.78;5055823;28;1119;-51
2021/12/07 03:49:26;;;;;;;;;;;;;;;8.18;90.41;93738.50;5054272;28;1053;-51
2021/12/07 03:51:52;;;;;;;;;;;;;;;8.24;90.12;93744.94;5055921;28;1044;-51
2021/12/07 03:54:18;;;;;;;;;;;;;;;8.23;90.19;93733.44;5055283;28;1028;-51
2021/12/07 03:56:43;;;;;;;;;;;;;;;8.25;90.11;93736.75;5055985;28;1359;-51
2021/12/07 03:59:09;;;;;;;;;;;;;;;8.20;90.42;93736.47;5055344;28;986;-51
2021/12/07 04:01:35;;;;;;;;;;;;;;;8.14;90.90;93742.53;5055579;28;1038;-51
2021/12/07 04:04:03;;;;;;;;;;;;;;;8.14;91.11;93739.88;5055440;28;1985;-51
2021/12/07 04:06:29;;;;;;;;;;;;;;;8.11;91.24;93743.69;5055714;28;1113;-51
2021/12/07 04:08:55;;;;;;;;;;;;;;;8.08;91.33;93737.91;5054979;28;1097;-51
2021/12/07 04:11:21;;;;;;;;;;;;;;;8.24;90.39;93744.94;5055383;28;1045;-51
2021/12/07 04:13:47;;;;;;;;;;;;;;;7.99;89.51;93750.47;5054862;28;1019;-51
2021/12/07 04:16:14;;;;;;;;;;;;;;;7.97;89.08;93758.63;5055438;28;1048;-51
2021/12/07 04:18:41;;;;;;;;;;;;;;;7.92;88.30;93760.19;5054849;28;1167;-51
2021/12/07 04:21:07;;;;;;;;;;;;;;;7.88;87.66;93753.56;5055137;28;969;-50
2021/12/07 04:23:33;;;;;;;;;;;;;;;7.81;86.87;93758.75;5055263;28;1975;-51
2021/12/07 04:26:00;;;;;;;;;;;;;;;7.69;87.44;93754.88;5055223;28;1060;-51
2021/12/07 04:28:26;;;;;;;;;;;;;;;7.70;86.83;93754.69;5054974;28;1032;-50
2021/12/07 04:30:52;;;;;;;;;;;;;;;7.63;86.68;93754.56;5054991;28;1036;-50
2021/12/07 04:33:18;;;;;;;;;;;;;;;7.54;86.55;93757.47;5054816;28;1040;-50
2021/12/07 04:35:46;;;;;;;;;;;;;;;7.39;87.03;93760.03;5054611;28;1093;-50
2021/12/07 04:38:12;;;;;;;;;;;;;;;7.22;88.07;93759.31;5054652;28;1038;-50
2021/12/07 04:40:39;;;;;;;;;;;;;;;7.31;88.36;93757.44;5054728;28;962;-50
2021/12/07 04:43:05;;;;;;;;;;;;;;;7.43;87.77;93761.34;5054816;28;1968;-50
2021/12/07 04:45:53;;;;;;;;;;;;;;;7.61;86.35;93748.59;5054743;28;1009;-50
2021/12/07 04:58:59;;;;;;;;;;;;;;;7.26;85.71;93770.44;5054266;28;1065;-50
2021/12/07 05:01:25;;;;;;;;;;;;;;;7.11;86.11;93771.16;5054209;28;1014;-50
2021/12/07 05:03:54;;;;;;;;;;;;;;;7.18;85.97;93769.47;5054122;28;1906;-50
2021/12/07 05:06:25;;;;;;;;;;;;;;;7.27;85.20;93767.59;5054385;28;953;-50
2021/12/07 05:08:57;;;;;;;;;;;;;;;7.20;84.58;93770.13;5054003;28;1105;-50
2021/12/07 05:11:51;;;;;;;;;;;;;;;7.17;85.06;93765.16;5053876;28;1014;-50
2021/12/07 05:14:19;;;;;;;;;;;;;;;7.16;84.61;93766.16;5053753;28;1589;-50
2021/12/07 05:38:29;;;;;;;;;;;;;;;6.67;85.33;93776.97;5053741;28;1061;-50
2021/12/07 05:40:55;;;;;;;;;;;;;;;6.65;85.52;93778.97;5053250;28;1061;-50
2021/12/07 05:43:21;;;;;;;;;;;;;;;6.61;84.85;93782.97;5053321;28;1989;-50
2021/12/07 05:45:47;;;;;;;;;;;;;;;6.58;84.44;93778.84;5053280;28;1112;-50
2021/12/07 05:48:14;;;;;;;;;;;;;;;6.63;85.54;93786.28;5053248;28;1042;-50
2021/12/07 05:50:40;;;;;;;;;;;;;;;6.72;83.79;93787.94;5053155;28;1570;-50
2021/12/07 05:53:07;;;;;;;;;;;;;;;6.53;84.15;93785.66;5053382;28;1032;-50
2021/12/07 05:55:33;;;;;;;;;;;;;;;6.47;84.91;93786.31;5053289;28;1050;-50
2021/12/07 05:57:59;;;;;;;;;;;;;;;6.42;85.00;93785.00;5053631;28;1061;-50
2021/12/07 06:00:27;;;;;;;;;;;;;;;6.48;85.18;93790.66;5052940;28;1042;-50
2021/12/07 06:02:55;;;;;;;;;;;;;;;6.55;84.62;93788.97;5053234;28;1917;-50
2021/12/07 06:05:22;;;;;;;;;;;;;;;6.56;83.92;93793.28;5052000;28;1053;-50
2021/12/07 06:07:49;;;;;;;;;;;;;;;6.39;84.66;93795.13;5053158;28;950;-50
2021/12/07 06:10:15;;;;;;;;;;;;;;;6.39;84.60;93800.44;5052580;28;966;-50
2021/12/07 06:12:41;;;;;;;;;;;;;;;6.29;85.07;93792.66;5053439;28;1068;-50
2021/12/07 06:15:07;;;;;;;;;;;;;;;6.30;85.39;93798.78;5052625;28;1105;-50
2021/12/07 06:17:33;;;;;;;;;;;;;;;6.31;85.17;93795.16;5052984;28;1192;-50
2021/12/07 06:19:59;;;;;;;;;;;;;;;6.28;84.93;93804.31;5052653;28;1222;-50
2021/12/07 06:22:25;;;;;;;;;;;;;;;6.25;84.62;93804.63;5052753;28;1918;-50
2021/12/07 06:24:51;;;;;;;;;;;;;;;6.25;83.50;93805.44;5052481;28;1089;-50
2021/12/07 06:27:17;;;;;;;;;;;;;;;6.23;84.57;93806.63;5052991;28;993;-50
2021/12/07 06:29:43;;;;;;;;;;;;;;;6.19;84.67;93803.47;5052680;28;966;-50
2021/12/07 06:32:09;;;;;;;;;;;;;;;6.22;84.24;93805.78;5052635;28;1024;-50
2021/12/07 06:34:36;;;;;;;;;;;;;;;6.15;84.56;93810.09;5052589;28;1125;-50
2021/12/07 06:37:02;;;;;;;;;;;;;;;6.18;84.30;93807.09;5052595;28;1310;-50
2021/12/07 06:39:29;;;;;;;;;;;;;;;6.13;84.58;93808.59;5052693;28;966;-50
2021/12/07 06:41:55;;;;;;;;;;;;;;;6.17;84.64;93802.81;5052484;28;1910;-50
2021/12/07 06:44:21;;;;;;;;;;;;;;;6.17;85.16;93808.13;5052734;28;1048;-50
2021/12/07 06:46:48;;;;;;;;;;;;;;;6.15;84.44;93804.81;5052671;28;1000;-50
2021/12/07 06:49:14;;;;;;;;;;;;;;;6.18;83.75;93814.25;5052525;28;1116;-51
2021/12/07 06:51:41;;;;;;;;;;;;;;;6.01;84.34;93811.63;5052442;28;1023;-51
2021/12/07 06:54:07;;;;;;;;;;;;;;;6.02;83.65;93807.94;5052408;28;1021;-50
2021/12/07 06:56:33;;;;;;;;;;;;;;;5.99;84.14;93816.22;5052480;28;958;-50
2021/12/07 06:58:59;;;;;;;;;;;;;;;5.95;84.07;93817.56;5052533;28;1108;-50
2021/12/07 07:01:25;;;;;;;;;;;;;;;5.96;84.22;93821.06;5051910;28;1049;-50
2021/12/07 07:03:51;;;;;;;;;;;;;;;5.99;83.72;93818.06;5052251;28;1996;-50
2021/12/07 07:06:17;;;;;;;;;;;;;;;5.93;83.81;93821.34;5051874;28;1093;-50
2021/12/07 07:08:43;;;;;;;;;;;;;;;5.82;84.00;93810.09;5052325;28;1085;-50
2021/12/07 07:11:10;;;;;;;;;;;;;;;5.82;83.46;93818.03;5051661;28;1032;-50
2021/12/07 07:13:36;;;;;;;;;;;;;;;5.79;83.18;93820.19;5052586;28;1064;-50
2021/12/07 07:16:02;;;;;;;;;;;;;;;5.73;83.88;93826.13;5051771;28;1097;-50
2021/12/07 07:18:28;;;;;;;;;;;;;;;5.82;83.13;93823.34;5055788;28;1261;-50
2021/12/07 07:20:55;;;;;;;;;;;;;;;5.89;82.10;93823.50;5056047;28;1360;-50
2021/12/07 07:23:22;;;;;;;;;;;;;;;5.72;83.04;93827.13;5056390;28;1914;-51
2021/12/07 07:25:48;;;;;;;;;;;;;;;5.67;83.65;93830.25;5056095;28;1036;-50
2021/12/07 07:28:15;;;;;;;;;;;;;;;5.61;83.64;93823.78;5056449;28;981;-50
2021/12/07 07:30:41;;;;;;;;;;;;;;;5.68;82.74;93830.09;5055704;28;1026;-50
2021/12/07 07:33:07;;;;;;;;;;;;;;;5.62;83.36;93829.94;5056180;28;1025;-50
2021/12/07 07:35:33;;;;;;;;;;;;;;;5.48;83.41;93834.03;5055671;28;1089;-50
2021/12/07 07:38:00;;;;;;;;;;;;;;;5.51;83.50;93840.84;5056012;28;1101;-50
2021/12/07 07:40:26;;;;;;;;;;;;;;;5.54;82.61;93836.06;5055897;28;1032;-50
2021/12/07 07:42:52;;;;;;;;;;;;;;;5.41;81.77;93839.19;5054522;28;1993;-50
2021/12/07 07:45:19;;;;;;;;;;;;;;;5.37;82.27;93837.00;5055587;28;1092;-50
2021/12/07 07:47:45;;;;;;;;;;;;;;;5.25;83.25;93834.66;5056057;28;1077;-50
2021/12/07 07:50:12;;;;;;;;;;;;;;;5.26;82.40;93835.50;5055595;28;982;-50
2021/12/07 07:52:38;;;;;;;;;;;;;;;5.39;82.74;93837.69;5055475;28;1034;-50
2021/12/07 07:55:04;;;;;;;;;;;;;;;5.63;81.71;93840.41;5055722;28;1899;-50
2021/12/07 07:57:30;;;;;;;;;;;;;;;5.59;81.76;93843.53;5055622;28;985;-50
2021/12/07 07:59:56;;;;;;;;;;;;;;;5.45;81.01;93845.81;5055575;28;998;-50
2021/12/07 08:02:22;;;;;;;;;;;;;;;5.23;82.71;93846.41;5055321;28;1910;-50
2021/12/07 08:04:48;;;;;;;;;;;;;;;5.30;82.20;93851.91;5055384;28;1034;-50
2021/12/07 08:07:14;;;;;;;;;;;;;;;5.22;81.83;93847.41;5055221;28;1021;-50
2021/12/07 08:09:41;;;;;;;;;;;;;;;5.20;81.92;93852.03;5055707;28;954;-50
2021/12/07 08:12:07;;;;;;;;;;;;;;;5.14;81.36;93845.56;5054912;28;1728;-50
2021/12/07 08:14:33;;;;;;;;;;;;;;;4.95;82.05;93854.59;5055186;28;1014;-50
2021/12/07 08:17:00;;;;;;;;;;;;;;;5.04;82.34;93853.63;5055087;28;978;-50
2021/12/07 08:19:25;;;;;;;;;;;;;;;5.16;81.68;93850.69;5055336;28;1261;-50
2021/12/07 08:21:51;;;;;;;;;;;;;;;5.15;81.94;93849.84;5055019;28;965;-50
2021/12/07 08:24:18;;;;;;;;;;;;;;;5.09;82.39;93853.16;5055039;28;1969;-50
2021/12/07 08:26:44;;;;;;;;;;;;;;;5.14;82.65;93852.66;5055058;28;1028;-50
2021/12/07 08:29:10;;;;;;;;;;;;;;;5.07;82.69;93858.59;5054148;28;997;-50
2021/12/07 08:31:35;;;;;;;;;;;;;;;5.12;82.19;93854.63;5054843;28;1064;-50
2021/12/07 08:34:02;;;;;;;;;;;;;;;5.09;81.86;93858.44;5054951;28;1058;-50
2021/12/07 08:36:28;;;;;;;;;;;;;;;5.00;82.99;93862.03;5054388;28;1263;-50
2021/12/07 08:38:54;;;;;;;;;;;;;;;4.92;82.78;93859.38;5054903;28;1053;-50
2021/12/07 08:41:20;;;;;;;;;;;;;;;4.87;83.27;93859.81;5054592;28;993;-50
2021/12/07 08:43:46;;;;;;;;;;;;;;;5.01;82.71;93863.72;5054792;28;1910;-50
2021/12/07 08:46:13;;;;;;;;;;;;;;;5.19;81.65;93867.09;5054525;28;1083;-50
2021/12/07 08:48:41;;;;;;;;;;;;;;;5.16;81.63;93864.78;5054608;28;977;-50
2021/12/07 08:51:09;;;;;;;;;;;;;;;5.18;81.44;93864.59;5054557;28;1146;-50
2021/12/07 08:53:38;;;;;;;;;;;;;;;5.20;81.74;93866.13;5054660;28;1057;-50
2021/12/07 09:01:33;;;;;;;;;;;;;;;5.06;81.79;93872.00;5054326;28;1044;-50
2021/12/07 09:04:00;;;;;;;;;;;;;;;4.95;82.84;93869.63;5054486;28;1910;-50
2021/12/07 09:06:27;;;;;;;;;;;;;;;5.04;82.20;93877.44;5054409;28;962;-50
2021/12/07 09:08:53;;;;;;;;;;;;;;;5.14;81.46;93876.50;5054319;28;1042;-50
2021/12/07 09:11:19;;;;;;;;;;;;;;;5.15;81.08;93873.69;5053850;28;1009;-50
2021/12/07 09:13:45;;;;;;;;;;;;;;;5.24;80.57;93874.56;5054651;28;1218;-50
2021/12/07 09:16:14;;;;;;;;;;;;;;;5.35;80.04;93881.38;5054168;28;1051;-50
2021/12/07 09:18:40;;;;;;;;;;;;;;;5.36;80.26;93872.47;5054085;28;1182;-50
2021/12/07 09:21:07;;;;;;;;;;;;;;;5.36;80.10;93872.47;5054191;28;1025;-50
2021/12/07 09:23:33;;;;;;;;;;;;;;;5.40;80.04;93876.44;5053688;28;1989;-50
2021/12/07 09:25:59;;;;;;;;;;;;;;;5.45;79.51;93874.16;5053969;28;1044;-50
2021/12/07 09:28:25;;;;;;;;;;;;;;;5.36;80.63;93872.47;5053621;28;993;-50
2021/12/07 09:30:52;;;;;;;;;;;;;;;5.40;81.24;93879.09;5054098;28;1003;-50
2021/12/07 09:33:22;;;;;;;;;;;;;;;5.49;80.70;93875.47;5053627;28;1009;-56
2021/12/07 09:35:48;;;;;;;;;;;;;;;5.60;79.95;93875.19;5053844;28;1171;-56
2021/12/07 09:38:15;;;;;;;;;;;;;;;5.72;79.08;93872.22;5053563;28;1005;-49
2021/12/07 09:40:42;;;;;;;;;;;;;;;5.61;79.42;93866.22;5053146;28;1057;-49
2021/12/07 09:43:09;;;;;;;;;;;;;;;5.55;80.10;93856.28;5053124;28;1914;-49
2021/12/07 09:45:36;;;;;;;;;;;;;;;5.49;80.48;93854.28;5053927;28;1038;-50
2021/12/07 09:48:03;;;;;;;;;;;;;;;5.54;81.63;93853.78;5053382;28;1052;-49
2021/12/07 09:50:29;;;;;;;;;;;;;;;5.73;80.95;93857.94;5053770;28;1229;-49
2021/12/07 09:52:55;;;;;;;;;;;;;;;5.73;79.61;93863.25;5053243;28;1021;-49
2021/12/07 09:55:21;;;;;;;;;;;;;;;5.67;80.84;93867.38;5053623;28;1254;-49
2021/12/07 09:57:49;;;;;;;;;;;;;;;5.78;80.29;93859.13;5053258;28;1070;-49
2021/12/07 10:00:17;;;;;;;;;;;;;;;5.84;80.16;93857.63;5052130;28;998;-50
2021/12/07 10:02:44;;;;;;;;;;;;;;;5.78;80.20;93851.16;5053089;28;1902;-49
2021/12/07 10:05:11;;;;;;;;;;;;;;;5.71;79.87;93855.50;5053396;28;1112;-50
2021/12/07 10:07:37;;;;;;;;;;;;;;;5.78;80.85;93843.22;5053268;28;1124;-49
2021/12/07 10:10:07;;;;;;;;;;;;;;;5.94;80.30;93839.75;5052995;28;1029;-49
2021/12/07 10:12:33;;;;;;;;;;;;;;;5.94;80.04;93839.75;5052943;28;1081;-50
2021/12/07 10:15:04;;;;;;;;;;;;;;;5.86;80.54;93839.72;5052721;28;978;-49
2021/12/07 10:17:30;;;;;;;;;;;;;;;6.01;79.65;93824.88;5053078;28;1104;-49
2021/12/07 10:19:56;;;;;;;;;;;;;;;5.89;79.75;93817.38;5052506;28;1178;-49
2021/12/07 10:22:22;;;;;;;;;;;;;;;6.00;79.99;93807.28;5052725;28;1910;-49
2021/12/07 10:24:50;;;;;;;;;;;;;;;5.98;80.36;93808.47;5052579;28;1037;-49
2021/12/07 10:27:36;;;;;;;;;;;;;;;5.99;80.61;93818.06;5051660;28;927;-49
2021/12/07 10:30:18;;;;;;;;;;;;;;;5.94;80.14;93812.38;5052609;28;1966;-50
2021/12/07 10:32:56;;;;;;;;;;;;;;;5.80;81.66;93809.41;5052759;28;1020;-50
2021/12/07 10:35:33;;;;;;;;;;;;;;;5.60;81.13;93811.53;5052493;28;1220;-51
2021/12/07 10:38:13;;;;;;;;;;;;;;;5.79;81.48;93814.88;5052822;28;998;-50
2021/12/07 10:41:18;;;;;;;;;;;;;;;5.77;81.31;93812.41;5052892;28;969;-50
2021/12/07 10:43:46;;;;;;;;;;;;;;;5.78;81.57;93813.22;5010104;28;1985;-50
2021/12/07 10:46:25;;;;;;;;;;;;;;;5.93;80.40;93808.09;5045856;28;1241;-50
2021/12/07 10:49:06;;;;;;;;;;;;;;;5.98;79.34;93803.97;5052574;28;1041;-50
2021/12/07 10:51:32;;;;;;;;;;;;;;;5.64;79.74;93807.56;5052312;28;962;-50
2021/12/07 10:53:58;;;;;;;;;;;;;;;5.73;79.43;93800.47;5052029;28;1030;-50
2021/12/07 10:56:37;;;;;;;;;;;;;;;5.75;80.38;93802.94;5052429;28;1087;-50
2021/12/07 10:59:06;;;;;;;;;;;;;;;5.90;79.97;93809.25;5052305;28;1033;-50
2021/12/07 11:01:33;;;;;;;;;;;;;;;5.86;81.22;93799.94;5052445;28;1229;-50
2021/12/07 11:04:19;;;;;;;;;;;;;;;5.80;80.60;93796.13;5052031;28;1995;-50
2021/12/07 11:07:18;;;;;;;;;;;;;;;5.87;78.85;93797.13;5052316;28;962;-50
2021/12/07 11:09:46;;;;;;;;;;;;;;;5.85;79.18;93793.81;5028966;28;1357;-50
2021/12/07 11:12:14;;;;;;;;;;;;;;;5.77;79.80;93788.53;5052302;28;1056;-50
2021/12/07 11:18:05;;;;;;;;;;;;;;;5.67;80.76;93793.13;3332640;28;2917;-47
2021/12/07 11:20:31;;;;;;;;;;;;;;;5.72;80.10;93803.28;5032102;28;1242;-46
2021/12/07 11:23:08;;;;;;;;;;;;;;;5.58;81.03;93789.66;5032633;28;1918;-47
2021/12/07 11:31:12;;;;;;;;;;;;;;;5.68;79.24;93777.06;5032327;28;1063;-48
2021/12/07 11:33:38;;;;;;;;;;;;;;;5.75;79.46;93776.41;5031751;28;1179;-47
2021/12/07 11:36:14;;;;;;;;;;;;;;;5.85;79.19;93777.09;5032356;28;1058;-48
2021/12/07 11:38:40;;;;;;;;;;;;;;;5.74;78.71;93785.38;5031978;28;1188;-47
2021/12/07 11:41:13;;;;;;;;;;;;;;;5.53;77.87;93775.25;5032283;28;958;-47
2021/12/07 11:43:58;;;;;;;;;;;;;;;5.61;78.67;93775.25;5031809;28;1914;-47
2021/12/07 11:46:25;;;;;;;;;;;;;;;5.59;78.64;93771.94;5031532;28;1029;-48
2021/12/07 11:49:04;;;;;;;;;;;;;;;5.35;78.54;93785.97;5032144;28;1238;-47
2021/12/07 11:51:30;;;;;;;;;;;;;;;5.37;77.92;93779.53;5031714;28;1278;-48
2021/12/07 11:53:56;;;;;;;;;;;;;;;5.35;79.64;93784.19;5032091;28;963;-47
2021/12/07 11:56:22;;;;;;;;;;;;;;;5.40;79.47;93778.38;5032099;28;969;-47
2021/12/07 11:58:48;;;;;;;;;;;;;;;5.36;78.85;93782.34;5031671;28;1194;-47
2021/12/07 12:01:14;;;;;;;;;;;;;;;5.38;79.58;93786.47;5031968;28;1060;-47
2021/12/07 12:03:40;;;;;;;;;;;;;;;5.31;78.59;93777.50;5033577;28;1907;-47
2021/12/07 12:06:07;;;;;;;;;;;;;;;5.31;78.49;93774.88;5035433;28;1116;-47
2021/12/07 12:08:33;;;;;;;;;;;;;;;5.42;77.42;93776.38;5035493;28;1060;-47
2021/12/07 12:11:11;;;;;;;;;;;;;;;5.38;77.67;93775.06;5035452;28;1049;-47
2021/12/07 12:14:04;;;;;;;;;;;;;;;5.50;77.12;93773.72;5035419;28;1060;-47
2021/12/07 12:16:30;;;;;;;;;;;;;;;5.53;77.04;93781.38;5035256;28;1035;-47
2021/12/07 12:18:59;;;;;;;;;;;;;;;5.43;78.34;93778.06;5035063;28;1180;-47
2021/12/07 12:21:33;;;;;;;;;;;;;;;5.37;77.30;93782.19;5035353;28;1036;-47
2021/12/07 12:24:07;;;;;;;;;;;;;;;5.59;77.55;93780.72;5034823;28;1910;-47
2021/12/07 12:26:34;;;;;;;;;;;;;;;5.53;77.07;93778.72;5015278;28;1069;-47
2021/12/07 12:29:00;;;;;;;;;;;;;;;5.50;77.18;93780.88;5015387;28;1076;-46
2021/12/07 12:31:44;;;;;;;;;;;;;;;5.62;76.46;93774.28;5015367;28;965;-47
2021/12/07 12:34:15;;;;;;;;;;;;;;;5.74;75.82;93772.13;5015264;28;1013;-46
2021/12/07 12:36:53;;;;;;;;;;;;;;;5.72;75.74;93777.56;5014949;28;1053;-47
2021/12/07 12:39:19;;;;;;;;;;;;;;;5.65;75.09;93781.88;5015368;28;1024;-47
2021/12/07 12:41:44;;;;;;;;;;;;;;;5.68;75.29;93777.06;5015022;28;1133;-47
2021/12/07 12:44:14;;;;;;;;;;;;;;;5.78;74.12;93774.25;5014999;28;1910;-46
2021/12/07 12:46:41;;;;;;;;;;;;;;;5.83;73.97;93777.25;5014625;28;1311;-47
2021/12/07 12:49:10;;;;;;;;;;;;;;;5.85;73.62;93777.09;5015104;28;1269;-47
2021/12/07 12:51:47;;;;;;;;;;;;;;;5.66;74.67;93781.72;5014995;28;967;-47
2021/12/07 12:54:13;;;;;;;;;;;;;;;5.62;73.76;93780.41;5014935;28;1069;-47
2021/12/07 12:56:39;;;;;;;;;;;;;;;5.65;74.34;93777.41;5014747;28;1311;-47
2021/12/07 12:59:09;;;;;;;;;;;;;;;5.62;73.79;93780.41;5014543;28;1064;-47
2021/12/07 13:01:36;;;;;;;;;;;;;;;5.60;73.12;93782.38;5014893;28;1060;-47
2021/12/07 13:04:06;;;;;;;;;;;;;;;5.64;72.49;93786.34;5014793;28;2000;-47
2021/12/07 13:06:45;;;;;;;;;;;;;;;5.58;72.83;93784.38;5014456;28;1014;-47
2021/12/07 13:09:22;;;;;;;;;;;;;;;5.51;73.09;93788.66;5014577;28;863;-47
2021/12/07 13:11:56;;;;;;;;;;;;;;;5.48;73.74;93781.88;5014283;28;1123;-47
2021/12/07 13:14:22;;;;;;;;;;;;;;;5.35;73.84;93791.28;5014263;28;1060;-47
2021/12/07 13:16:54;;;;;;;;;;;;;;;5.26;74.14;93793.91;5014347;28;996;-47
2021/12/07 13:19:21;;;;;;;;;;;;;;;5.25;74.19;93791.41;5014048;28;1281;-47
2021/12/07 13:21:48;;;;;;;;;;;;;;;5.41;73.57;93793.28;5014221;28;993;-47
2021/12/07 13:24:20;;;;;;;;;;;;;;;5.40;73.81;93794.28;5024496;28;1907;-47
2021/12/07 13:26:52;;;;;;;;;;;;;;;5.36;73.92;93790.28;5033776;28;1030;-47
2021/12/07 13:29:20;;;;;;;;;;;;;;;5.31;75.19;93797.91;5034055;28;1027;-47
2021/12/07 13:31:47;;;;;;;;;;;;;;;5.47;73.87;93795.28;5034124;28;966;-47
2021/12/07 13:34:15;;;;;;;;;;;;;;;5.52;73.59;93795.63;5033772;28;989;-47
2021/12/07 13:36:45;;;;;;;;;;;;;;;5.30;74.31;93798.91;5033651;28;1053;-47
2021/12/07 13:39:15;;;;;;;;;;;;;;;5.44;73.71;93798.25;5033681;28;1057;-47
2021/12/07 13:41:48;;;;;;;;;;;;;;;5.39;74.81;93803.25;5033790;28;1314;-47
2021/12/07 13:44:14;;;;;;;;;;;;;;;5.37;74.33;93799.88;5033703;28;1997;-47
2021/12/07 13:46:40;;;;;;;;;;;;;;;5.38;74.09;93806.88;5033447;28;970;-46
2021/12/07 13:49:11;;;;;;;;;;;;;;;5.32;73.83;93818.13;5033691;28;1021;-46
2021/12/07 13:51:38;;;;;;;;;;;;;;;5.27;74.42;93816.78;5034164;28;1065;-46
2021/12/07 13:54:05;;;;;;;;;;;;;;;5.36;74.18;93819.44;5033255;28;1100;-46
2021/12/07 13:56:35;;;;;;;;;;;;;;;5.36;75.86;93822.09;5033657;28;965;-47
2021/12/07 13:59:06;;;;;;;;;;;;;;;5.24;76.22;93822.41;5033230;28;1024;-46
2021/12/07 14:01:34;;;;;;;;;;;;;;;5.22;76.49;93832.34;5033313;28;1050;-48
2021/12/07 14:04:02;;;;;;;;;;;;;;;5.25;75.94;93832.03;5032800;28;2192;-47
2021/12/07 14:06:28;;;;;;;;;;;;;;;5.21;76.33;93828.00;5033456;28;961;-47
2021/12/07 14:09:08;;;;;;;;;;;;;;;5.38;76.25;93833.38;5032934;28;1077;-47
2021/12/07 14:11:35;;;;;;;;;;;;;;;5.38;75.47;93826.25;5033237;28;1022;-48
2021/12/07 14:14:06;;;;;;;;;;;;;;;5.24;76.77;93829.53;5033168;28;1049;-47
2021/12/07 14:16:32;;;;;;;;;;;;;;;5.23;76.02;93838.44;5033136;28;1009;-48
2021/12/07 14:18:58;;;;;;;;;;;;;;;5.09;76.43;93837.25;5032675;28;1343;-47
2021/12/07 14:21:24;;;;;;;;;;;;;;;5.05;76.02;93835.91;5033359;28;1013;-47
2021/12/07 14:23:54;;;;;;;;;;;;;;;5.21;75.56;93843.91;5032656;28;1918;-48
2021/12/07 14:26:24;;;;;;;;;;;;;;;5.40;74.21;93840.16;5032320;28;1269;-47
2021/12/07 14:28:51;;;;;;;;;;;;;;;5.28;74.13;93844.09;5032688;28;981;-48
2021/12/07 14:31:46;;;;;;;;;;;;;;;5.16;75.39;93848.03;5032873;28;1033;-48
2021/12/07 14:34:14;;;;;;;;;;;;;;;5.15;74.41;93851.69;5014960;28;1304;-48
2021/12/07 14:36:45;;;;;;;;;;;;;;;5.15;74.20;93844.56;5033052;28;1020;-47
2021/12/07 14:39:14;;;;;;;;;;;;;;;5.05;75.10;93849.16;5032491;28;1054;-47
2021/12/07 14:41:45;;;;;;;;;;;;;;;4.91;75.09;93852.41;5032672;28;1029;-48
2021/12/07 14:44:16;;;;;;;;;;;;;;;5.02;74.29;93854.78;5032321;28;1914;-47
2021/12/07 14:46:43;;;;;;;;;;;;;;;5.08;74.26;93854.13;5032500;28;993;-47
2021/12/07 14:49:09;;;;;;;;;;;;;;;5.16;74.71;93856.81;5032312;28;1985;-48
2021/12/07 14:51:35;;;;;;;;;;;;;;;5.15;74.43;93859.63;5032658;28;1045;-47
2021/12/07 14:54:02;;;;;;;;;;;;;;;5.32;72.98;93850.75;5032401;28;992;-48
2021/12/07 14:56:30;;;;;;;;;;;;;;;5.35;73.38;93850.44;5032530;28;1904;-48
2021/12/07 14:58:57;;;;;;;;;;;;;;;5.40;72.04;93852.59;5032265;28;1041;-48
2021/12/07 15:01:28;;;;;;;;;;;;;;;5.22;72.72;93848.22;5032748;28;1034;-48
2021/12/07 15:03:56;;;;;;;;;;;;;;;5.01;73.74;93847.81;5032475;28;1922;-46
2021/12/07 15:06:25;;;;;;;;;;;;;;;4.93;74.48;93853.88;5032636;28;1024;-47
2021/12/07 15:08:51;;;;;;;;;;;;;;;5.08;72.94;93851.47;5032339;28;1064;-47
2021/12/07 15:11:18;;;;;;;;;;;;;;;4.93;74.33;93853.88;5032780;28;1005;-47
2021/12/07 15:13:44;;;;;;;;;;;;;;;4.78;73.96;93845.72;5032250;28;1049;-47